createdAt,value
2019-01-04T00:02:35.498Z,3.87
2019-01-04T00:05:38.903Z,3.13
2019-01-04T00:08:41.992Z,5.07
2019-01-04T00:11:45.183Z,4.07
2019-01-04T00:14:48.583Z,4.90
2019-01-04T00:17:51.783Z,3.30
2019-01-04T00:20:55.076Z,3.67
2019-01-04T00:23:58.177Z,1.97
2019-01-04T00:27:01.262Z,3.53
2019-01-04T00:30:05.691Z,3.93
2019-01-04T00:33:09.807Z,9.07
2019-01-04T00:36:13.103Z,2.83
2019-01-04T00:39:16.197Z,1.90
2019-01-04T00:42:20.207Z,4.73
2019-01-04T00:45:23.411Z,4.13
2019-01-04T00:48:26.599Z,3.53
2019-01-04T00:51:29.707Z,6.43
2019-01-04T00:54:32.783Z,4.97
2019-01-04T00:58:12.468Z,4.23
2019-01-04T01:01:49.727Z,4.70
2019-01-04T01:05:17.983Z,5.67
2019-01-04T01:09:30.218Z,3.43
2019-01-04T01:13:19.878Z,5.00
2019-01-04T01:16:52.961Z,8.00
2019-01-04T01:20:26.412Z,5.33
2019-01-04T01:24:06.194Z,5.90
2019-01-04T01:27:46.215Z,6.73
2019-01-04T01:31:41.686Z,3.27
2019-01-04T01:35:44.472Z,3.90
2019-01-04T01:39:37.704Z,3.10
2019-01-04T01:43:07.351Z,5.80
2019-01-04T01:46:52.702Z,5.97
2019-01-04T01:50:45.599Z,3.20
2019-01-04T01:53:48.787Z,5.30
2019-01-04T01:56:51.952Z,5.40
2019-01-04T01:59:55.081Z,3.83
2019-01-04T02:02:58.143Z,6.47
2019-01-04T02:06:01.466Z,5.33
2019-01-04T02:09:07.517Z,4.00
2019-01-04T02:12:10.798Z,6.80
2019-01-04T02:15:14.139Z,7.07
2019-01-04T02:18:17.495Z,3.47
2019-01-04T02:21:20.827Z,7.57
2019-01-04T02:24:23.987Z,4.00
2019-01-04T02:27:27.211Z,11.87
2019-01-04T02:30:30.280Z,4.80
2019-01-04T02:33:33.499Z,5.93
2019-01-04T02:36:36.604Z,9.40
2019-01-04T02:39:39.747Z,13.87
2019-01-04T02:42:42.943Z,8.47
2019-01-04T02:45:46.148Z,6.33
2019-01-04T02:48:49.280Z,8.53
2019-01-04T02:51:52.331Z,7.57
2019-01-04T02:54:55.555Z,7.40
2019-01-04T02:57:58.714Z,5.63
2019-01-04T03:01:01.918Z,8.37
2019-01-04T03:04:05.016Z,9.33
2019-01-04T03:07:08.104Z,11.83
2019-01-04T03:10:11.647Z,11.33
2019-01-04T03:13:14.796Z,9.93
2019-01-04T03:16:17.921Z,9.20
2019-01-04T03:19:21.083Z,8.87
2019-01-04T03:22:24.180Z,13.90
2019-01-04T03:25:27.270Z,16.43
2019-01-04T03:28:30.363Z,13.93
2019-01-04T03:31:33.465Z,19.00
2019-01-04T03:34:36.553Z,16.67
2019-01-04T03:37:41.227Z,19.90
2019-01-04T03:40:44.392Z,14.87
2019-01-04T03:43:47.464Z,20.40
2019-01-04T03:46:50.555Z,19.67
2019-01-04T03:49:53.652Z,20.73
2019-01-04T03:52:56.850Z,25.70
2019-01-04T03:56:00.057Z,19.70
2019-01-04T03:59:03.235Z,21.03
2019-01-04T04:02:06.631Z,18.73
2019-01-04T04:05:09.931Z,23.57
2019-01-04T04:08:13.029Z,22.13
2019-01-04T04:11:16.219Z,26.73
2019-01-04T04:14:19.415Z,25.60
2019-01-04T04:17:22.509Z,28.67
2019-01-04T04:20:25.703Z,20.63
2019-01-04T04:23:28.903Z,20.20
2019-01-04T04:26:31.991Z,26.77
2019-01-04T04:29:35.089Z,31.33
2019-01-04T04:32:38.174Z,24.30
2019-01-04T04:35:42.537Z,28.13
2019-01-04T04:38:46.819Z,30.60
2019-01-04T04:41:49.915Z,32.77
2019-01-04T04:44:53.003Z,30.53
2019-01-04T04:47:56.167Z,36.10
2019-01-04T04:50:59.302Z,34.97
2019-01-04T04:54:02.417Z,33.77
2019-01-04T04:57:05.475Z,35.33
2019-01-04T05:00:08.811Z,34.73
2019-01-04T05:03:11.971Z,41.77
2019-01-04T05:06:15.103Z,34.83
2019-01-04T05:09:18.158Z,42.10
2019-01-04T05:12:21.356Z,50.37
2019-01-04T05:15:24.489Z,42.00
2019-01-04T05:18:27.531Z,42.23
2019-01-04T05:21:30.777Z,37.83
2019-01-04T05:24:34.033Z,43.30
2019-01-04T05:27:37.054Z,42.50
2019-01-04T05:30:40.118Z,45.13
2019-01-04T05:33:43.234Z,38.83
2019-01-04T05:36:46.303Z,35.77
2019-01-04T05:39:49.539Z,42.23
2019-01-04T05:42:52.587Z,34.77
2019-01-04T05:45:55.730Z,33.70
2019-01-04T05:48:58.875Z,36.33
2019-01-04T05:52:02.001Z,40.13
2019-01-04T05:55:05.315Z,39.17
2019-01-04T05:58:08.696Z,42.90
2019-01-04T06:01:11.856Z,36.57
2019-01-04T06:04:15.059Z,35.27
2019-01-04T06:07:18.187Z,33.43
2019-01-04T06:10:21.346Z,38.00
2019-01-04T06:13:24.672Z,30.93
2019-01-04T06:16:27.830Z,32.83
2019-01-04T06:19:32.103Z,36.97
2019-01-04T06:22:35.258Z,38.93
2019-01-04T06:25:38.490Z,34.97
2019-01-04T06:28:41.531Z,38.17
2019-01-04T06:31:44.665Z,28.67
2019-01-04T06:34:47.823Z,31.87
2019-01-04T06:37:50.958Z,26.93
2019-01-04T06:40:54.011Z,26.43
2019-01-04T06:43:57.207Z,41.87
2019-01-04T06:47:19.336Z,38.53
2019-01-04T06:50:22.643Z,43.07
2019-01-04T06:53:25.831Z,37.70
2019-01-04T06:56:28.935Z,41.67
2019-01-04T06:59:32.119Z,45.53
2019-01-04T07:02:35.223Z,38.80
2019-01-04T07:05:38.310Z,36.70
2019-01-04T07:08:41.407Z,42.13
2019-01-04T07:11:44.747Z,34.30
2019-01-04T07:14:48.102Z,30.40
2019-01-04T07:17:51.090Z,37.33
2019-01-04T07:20:54.282Z,38.97
2019-01-04T07:23:57.380Z,39.53
2019-01-04T07:27:00.478Z,38.17
2019-01-04T07:30:03.668Z,43.23
2019-01-04T07:33:06.524Z,48.53
2019-01-04T07:36:10.667Z,48.73
2019-01-04T07:39:13.895Z,36.60
2019-01-04T07:42:16.954Z,45.70
2019-01-04T07:45:20.051Z,39.50
2019-01-04T07:48:23.139Z,53.47
2019-01-04T07:51:26.275Z,47.40
2019-01-04T07:54:31.328Z,50.27
2019-01-04T07:57:36.498Z,45.30
2019-01-04T08:00:39.827Z,44.90
2019-01-04T08:03:43.035Z,37.63
2019-01-04T08:06:46.315Z,48.23
2019-01-04T08:09:49.534Z,46.87
2019-01-04T08:12:53.615Z,42.77
2019-01-04T08:15:56.835Z,36.87
2019-01-04T08:19:00.035Z,49.80
2019-01-04T08:22:03.409Z,52.53
2019-01-04T08:25:08.140Z,54.63
2019-01-04T08:28:11.340Z,52.03
2019-01-04T08:31:14.459Z,51.20
2019-01-04T08:34:17.619Z,54.00
2019-01-04T08:37:20.845Z,50.20
2019-01-04T08:40:24.035Z,63.47
2019-01-04T08:43:27.103Z,51.63
2019-01-04T08:46:31.790Z,61.50
2019-01-04T08:49:35.035Z,59.17
2019-01-04T08:52:38.262Z,59.33
2019-01-04T08:55:41.423Z,58.73
2019-01-04T08:58:44.824Z,57.50
2019-01-04T09:01:47.915Z,44.63
2019-01-04T09:04:53.149Z,44.67
2019-01-04T09:07:56.399Z,52.00
2019-01-04T09:10:59.541Z,46.87
2019-01-04T09:14:02.987Z,47.53
2019-01-04T09:17:06.347Z,51.33
2019-01-04T09:20:10.361Z,48.57
2019-01-04T09:23:13.455Z,47.37
2019-01-04T09:26:16.643Z,44.47
2019-01-04T09:29:19.842Z,43.97
2019-01-04T09:32:23.039Z,48.17
2019-01-04T09:35:26.199Z,40.33
2019-01-04T09:38:29.327Z,45.63
2019-01-04T09:41:44.760Z,44.97
2019-01-04T09:44:47.907Z,44.83
2019-01-04T09:47:51.028Z,43.57
2019-01-04T09:50:54.295Z,37.37
2019-01-04T09:53:57.418Z,40.83
2019-01-04T09:57:00.479Z,41.93
2019-01-04T10:00:09.727Z,43.60
2019-01-04T10:03:13.820Z,36.73
2019-01-04T10:06:16.976Z,38.00
2019-01-04T10:09:20.368Z,39.13
2019-01-04T10:12:23.634Z,37.83
2019-01-04T10:15:27.211Z,24.83
2019-01-04T10:18:30.427Z,33.43
2019-01-04T10:21:33.723Z,35.67
2019-01-04T10:24:36.915Z,34.93
2019-01-04T10:27:40.215Z,28.80
2019-01-04T10:30:43.315Z,27.00
2019-01-04T10:33:46.405Z,27.67
2019-01-04T10:36:49.499Z,30.57
2019-01-04T10:39:52.583Z,27.47
2019-01-04T10:42:55.679Z,33.10
2019-01-04T10:45:58.915Z,26.07
2019-01-04T10:49:02.076Z,25.47
2019-01-04T10:52:05.174Z,31.43
2019-01-04T10:55:08.252Z,26.50
2019-01-04T10:58:11.833Z,28.57
2019-01-04T11:01:15.075Z,23.83
2019-01-04T11:04:18.143Z,27.40
2019-01-04T11:07:21.339Z,26.87
2019-01-04T11:10:24.537Z,26.47
2019-01-04T11:13:27.731Z,25.10
2019-01-04T11:16:30.925Z,24.00
2019-01-04T11:19:34.564Z,26.97
2019-01-04T11:23:37.630Z,20.97
2019-01-04T11:26:56.083Z,20.93
2019-01-04T11:30:50.607Z,19.33
2019-01-04T11:34:12.443Z,22.80
2019-01-04T11:37:32.401Z,24.60
2019-01-04T11:41:03.035Z,21.53
2019-01-04T11:44:48.566Z,22.10
2019-01-04T11:48:19.919Z,21.83
2019-01-04T11:51:44.923Z,20.20
2019-01-04T11:54:48.015Z,18.50
2019-01-04T11:57:51.271Z,25.53
2019-01-04T12:00:54.499Z,18.70
2019-01-04T12:03:58.795Z,16.80
2019-01-04T12:07:02.022Z,14.53
2019-01-04T12:10:05.707Z,16.20
2019-01-04T12:13:09.007Z,15.17
2019-01-04T12:16:12.287Z,16.50
2019-01-04T12:19:15.592Z,13.80
2019-01-04T12:22:18.718Z,16.23
2019-01-04T12:25:21.779Z,15.00
2019-01-04T12:28:25.523Z,13.80
2019-01-04T12:31:28.607Z,17.70
2019-01-04T12:34:32.129Z,15.20
2019-01-04T12:37:35.406Z,12.87
2019-01-04T12:40:38.538Z,12.27
2019-01-04T12:43:47.716Z,14.47
2019-01-04T12:46:46.591Z,14.17
2019-01-04T12:49:49.691Z,14.07
2019-01-04T12:52:52.926Z,17.83
2019-01-04T12:59:09.527Z,13.97
2019-01-04T13:02:13.636Z,12.40
2019-01-04T13:05:16.839Z,12.77
2019-01-04T13:08:20.027Z,16.10
2019-01-04T13:11:23.473Z,12.93
2019-01-04T13:14:26.568Z,16.63
2019-01-04T13:17:29.715Z,14.50
2019-01-04T13:20:32.799Z,13.17
2019-01-04T13:23:36.007Z,15.43
2019-01-04T13:26:39.367Z,11.80
2019-01-04T13:29:42.626Z,12.30
2019-01-04T13:32:45.795Z,22.53
2019-01-04T13:35:48.879Z,14.90
2019-01-04T13:38:51.984Z,15.13
2019-01-04T13:41:55.171Z,14.13
2019-01-04T13:44:58.490Z,16.17
2019-01-04T13:48:01.884Z,11.17
2019-01-04T13:51:05.067Z,20.03
2019-01-04T13:54:08.359Z,17.40
2019-01-04T13:57:11.456Z,17.53
2019-01-04T14:00:14.539Z,21.00
2019-01-04T14:03:17.647Z,16.50
2019-01-04T14:06:20.941Z,12.17
2019-01-04T14:09:24.043Z,19.03
2019-01-04T14:12:27.418Z,17.07
2019-01-04T14:15:30.523Z,18.63
2019-01-04T14:18:33.616Z,16.90
2019-01-04T14:21:36.706Z,15.63
2019-01-04T14:24:41.536Z,15.47
2019-01-04T14:27:45.194Z,16.73
2019-01-04T14:30:48.774Z,20.20
2019-01-04T14:33:52.774Z,11.60
2019-01-04T14:36:56.296Z,12.77
2019-01-04T14:39:59.919Z,15.80
2019-01-04T14:43:03.623Z,14.40
2019-01-04T14:46:07.188Z,12.93
2019-01-04T14:49:10.710Z,12.77
2019-01-04T14:52:13.851Z,13.13
2019-01-04T14:55:16.975Z,12.40
2019-01-04T14:58:20.101Z,14.67
2019-01-04T15:01:23.214Z,14.17
2019-01-04T15:04:26.591Z,14.77
2019-01-04T15:07:31.562Z,17.77
2019-01-04T15:10:34.831Z,10.30
2019-01-04T15:13:37.984Z,15.50
2019-01-04T15:16:41.361Z,11.90
2019-01-04T15:19:45.158Z,11.23
2019-01-04T15:22:48.327Z,13.13
2019-01-04T15:25:51.487Z,11.90
2019-01-04T15:28:54.822Z,12.33
2019-01-04T15:31:58.079Z,15.97
2019-01-04T15:35:02.406Z,11.30
2019-01-04T15:38:05.603Z,9.67
2019-01-04T15:41:08.927Z,17.80
2019-01-04T15:44:12.195Z,9.47
2019-01-04T15:47:15.291Z,10.37
2019-01-04T15:50:18.483Z,11.90
2019-01-04T15:53:21.880Z,14.67
2019-01-04T15:56:25.075Z,10.93
2019-01-04T15:59:28.276Z,15.50
2019-01-04T16:02:31.470Z,13.10
2019-01-04T16:05:34.764Z,12.67
2019-01-04T16:08:37.855Z,11.57
2019-01-04T16:11:40.949Z,12.93
2019-01-04T16:14:44.560Z,18.00
2019-01-04T16:17:47.749Z,12.27
2019-01-04T16:20:50.835Z,15.87
2019-01-04T16:23:53.939Z,14.97
2019-01-04T16:26:57.019Z,15.40
2019-01-04T16:30:00.585Z,14.13
2019-01-04T16:33:11.411Z,18.13
2019-01-04T16:36:14.494Z,13.93
2019-01-04T16:39:17.687Z,18.80
2019-01-04T16:42:20.883Z,17.57
2019-01-04T16:45:23.975Z,15.13
2019-01-04T16:48:27.170Z,19.57
2019-01-04T16:51:30.263Z,17.97
2019-01-04T16:54:33.391Z,18.17
2019-01-04T16:57:36.998Z,18.70
2019-01-04T17:00:40.063Z,15.97
2019-01-04T17:03:43.151Z,23.50
2019-01-04T17:06:46.242Z,24.97
2019-01-04T17:09:49.332Z,19.90
2019-01-04T17:12:52.439Z,18.27
2019-01-04T17:15:55.516Z,31.13
2019-01-04T17:18:58.733Z,25.87
2019-01-04T17:22:01.804Z,20.60
2019-01-04T17:25:06.026Z,23.60
2019-01-04T17:28:10.151Z,19.57
2019-01-04T17:31:13.437Z,21.60
2019-01-04T17:34:16.803Z,21.93
2019-01-04T17:37:21.163Z,23.73
2019-01-04T17:40:24.352Z,21.30
2019-01-04T17:43:27.453Z,27.30
2019-01-04T17:46:30.639Z,24.27
2019-01-04T17:49:34.048Z,23.97
2019-01-04T17:52:38.284Z,20.77
2019-01-04T17:55:41.596Z,26.83
2019-01-04T17:58:44.759Z,18.57
2019-01-04T18:01:47.979Z,20.57
2019-01-04T18:04:51.040Z,24.67
2019-01-04T18:07:54.182Z,18.87
2019-01-04T18:10:57.234Z,23.20
2019-01-04T18:14:00.358Z,20.67
2019-01-04T18:17:03.518Z,29.20
2019-01-04T18:20:10.906Z,19.33
2019-01-04T18:23:13.603Z,35.60
2019-01-04T18:26:17.623Z,22.63
2019-01-04T18:29:21.935Z,22.27
2019-01-04T18:32:25.095Z,24.43
2019-01-04T18:35:28.220Z,31.40
2019-01-04T18:38:31.666Z,31.13
2019-01-04T18:41:34.916Z,26.83
2019-01-04T18:44:39.073Z,23.00
2019-01-04T18:47:42.443Z,28.97
2019-01-04T18:50:46.483Z,25.43
2019-01-04T18:53:49.539Z,24.80
2019-01-04T18:56:52.773Z,25.17
2019-01-04T18:59:55.928Z,25.20
2019-01-04T19:02:59.062Z,22.57
2019-01-04T19:06:02.228Z,22.23
2019-01-04T19:09:07.315Z,19.70
2019-01-04T19:12:10.811Z,19.50
2019-01-04T19:15:14.316Z,21.93
2019-01-04T19:18:17.452Z,18.87
2019-01-04T19:21:20.582Z,18.23
2019-01-04T19:24:23.642Z,19.20
2019-01-04T19:27:26.773Z,23.90
2019-01-04T19:30:30.033Z,21.40
2019-01-04T19:33:33.235Z,19.83
2019-01-04T19:36:37.615Z,25.87
2019-01-04T19:39:40.948Z,25.63
2019-01-04T19:42:45.201Z,30.23
2019-01-04T19:45:48.364Z,18.47
2019-01-04T19:48:51.496Z,31.63
2019-01-04T19:51:54.652Z,21.90
2019-01-04T19:54:57.747Z,24.77
2019-01-04T19:58:02.207Z,26.97
2019-01-04T20:01:05.460Z,25.07
2019-01-04T20:04:08.618Z,25.53
2019-01-04T20:08:37.007Z,23.93
2019-01-04T20:13:03.175Z,19.80
2019-01-04T20:16:43.815Z,17.33
2019-01-04T20:20:09.159Z,17.63
2019-01-04T20:23:30.443Z,24.77
2019-01-04T20:26:52.784Z,20.93
2019-01-04T20:30:14.513Z,23.27
2019-01-04T20:33:39.915Z,30.63
2019-01-04T20:37:15.674Z,26.27
2019-01-04T20:40:37.000Z,19.10
2019-01-04T20:43:59.519Z,28.77
2019-01-04T20:47:40.532Z,25.27
2019-01-04T20:51:03.049Z,22.37
2019-01-04T20:54:28.458Z,27.43
2019-01-04T20:57:53.059Z,25.93
2019-01-04T21:01:23.524Z,33.40
2019-01-04T21:04:49.507Z,33.50
2019-01-04T21:08:07.671Z,21.10
2019-01-04T21:11:24.487Z,23.97
2019-01-04T21:14:45.851Z,35.87
2019-01-04T21:18:04.872Z,34.03
2019-01-04T21:21:30.395Z,27.17
2019-01-04T21:25:10.235Z,25.63
2019-01-04T21:28:18.714Z,34.13
2019-01-04T21:31:44.132Z,26.43
2019-01-04T21:35:09.268Z,33.70
2019-01-04T21:38:31.991Z,29.57
2019-01-04T21:41:57.194Z,33.20
2019-01-04T21:45:18.825Z,24.10
2019-01-04T21:48:44.231Z,33.50
2019-01-04T21:52:06.791Z,31.70
2019-01-04T21:55:28.299Z,34.07
2019-01-04T21:58:49.647Z,28.83
2019-01-04T22:02:18.102Z,32.67
2019-01-04T22:05:39.697Z,28.67
2019-01-04T22:09:05.058Z,22.40
2019-01-04T22:12:27.770Z,29.33
2019-01-04T22:15:52.958Z,27.40
2019-01-04T22:19:17.354Z,28.27
2019-01-04T22:22:35.011Z,32.27
2019-01-04T22:26:05.016Z,27.80
2019-01-04T22:29:36.415Z,31.43
2019-01-04T22:33:00.675Z,29.47
2019-01-04T22:36:32.064Z,22.07
2019-01-04T22:39:53.208Z,25.30
2019-01-04T22:43:15.785Z,34.10
2019-01-04T22:46:37.279Z,21.40
2019-01-04T22:50:00.163Z,27.50
2019-01-04T22:53:22.761Z,31.43
2019-01-04T22:57:00.419Z,28.27
2019-01-04T23:00:23.013Z,29.37
2019-01-04T23:03:56.467Z,25.40
2019-01-04T23:07:27.878Z,33.60
2019-01-04T23:10:50.487Z,29.33
2019-01-04T23:14:11.539Z,25.10
2019-01-04T23:17:41.835Z,37.67
2019-01-04T23:21:13.087Z,33.50
2019-01-04T23:24:41.646Z,27.00
2019-01-04T23:28:13.011Z,28.90
2019-01-04T23:31:44.343Z,25.27
2019-01-04T23:35:05.430Z,30.37
2019-01-04T23:38:25.007Z,26.57
2019-01-04T23:41:46.482Z,30.37
2019-01-04T23:45:06.419Z,23.70
2019-01-04T23:48:29.155Z,19.83
2019-01-04T23:52:01.022Z,25.77
2019-01-04T23:55:23.583Z,21.57
2019-01-04T23:59:00.887Z,24.40
